Time;durP1;ratioP1;P1;durP2;ratioP2;P2;SDS_P1;SDS_P2;PMS_P1;PMS_P2;Temp;Humidity;BMP_temperature;BMP_pressure;BME280_temperature;BME280_humidity;BME280_pressure;Samples;Min_cycle;Max_cycle;Signal;HPM_P1;HPM_P2
2020/12/21 00:01:04;;;;;;;3.40;1.59;;;;;;;7.10;89.60;100024.69;2016225;79;21329;-77
2020/12/21 00:04:05;;;;;;;4.32;1.83;;;;;;;7.11;89.56;100031.59;2016369;80;20834;-77
2020/12/21 00:07:07;;;;;;;5.97;1.63;;;;;;;7.14;89.68;100026.47;2015750;80;20317;-77
2020/12/21 00:10:09;;;;;;;6.01;2.20;;;;;;;7.16;89.67;100023.06;2015019;79;20309;-77
2020/12/21 00:13:10;;;;;;;4.22;1.80;;;;;;;7.20;89.58;100019.72;2014688;80;20756;-77
2020/12/21 00:16:12;;;;;;;6.74;2.65;;;;;;;7.23;89.58;100022.38;2015548;80;20367;-76
2020/12/21 00:19:18;;;;;;;5.99;1.58;;;;;;;7.25;89.56;100018.09;2016527;80;20330;-77
2020/12/21 00:22:20;;;;;;;4.07;1.56;;;;;;;7.27;89.47;100016.41;2016097;79;20831;-77
2020/12/21 00:25:22;;;;;;;3.65;1.86;;;;;;;7.29;89.50;100019.03;2017010;80;20874;-77
2020/12/21 00:28:23;;;;;;;4.91;1.94;;;;;;;7.32;89.40;100026.81;2016519;80;20333;-77
2020/12/21 00:31:27;;;;;;;5.28;1.84;;;;;;;7.33;89.27;100032.84;2015908;79;20317;-77
2020/12/21 00:34:29;;;;;;;5.69;1.88;;;;;;;7.32;89.19;100031.13;2075800;68;20857;-76
2020/12/21 00:37:31;;;;;;;4.90;2.00;;;;;;;7.32;89.20;100023.38;2042910;79;20296;-76
2020/12/21 00:40:32;;;;;;;4.63;1.92;;;;;;;7.28;89.05;100030.19;2041927;79;20331;-76
2020/12/21 00:43:34;;;;;;;6.41;1.96;;;;;;;7.26;89.13;100031.88;2048135;79;20330;-76
2020/12/21 00:46:36;;;;;;;7.22;1.74;;;;;;;7.25;89.20;100023.25;2048224;79;20298;-76
2020/12/21 00:49:38;;;;;;;4.68;1.81;;;;;;;7.27;89.23;100025.88;2047997;79;20398;-76
2020/12/21 00:52:40;;;;;;;6.06;1.89;;;;;;;7.27;89.26;100026.75;2048091;79;20306;-76
2020/12/21 00:55:41;;;;;;;4.90;1.90;;;;;;;7.31;89.35;100035.41;2047708;79;20330;-76
2020/12/21 00:58:45;;;;;;;4.06;1.52;;;;;;;7.33;89.25;100028.56;2048511;79;20391;-76
2020/12/21 01:01:46;;;;;;;3.39;1.66;;;;;;;7.34;89.15;100025.13;2048078;79;20332;-76
2020/12/21 01:04:48;;;;;;;7.49;1.79;;;;;;;7.35;89.16;100020.84;2048007;79;20307;-76
2020/12/21 01:07:49;;;;;;;5.16;1.81;;;;;;;7.35;89.01;100024.28;2048570;79;20310;-77
2020/12/21 01:10:51;;;;;;;4.51;1.63;;;;;;;7.36;88.88;100023.47;2048033;79;20742;-76
2020/12/21 01:13:53;;;;;;;3.60;1.31;;;;;;;7.35;88.88;100016.53;2047266;79;20901;-76
2020/12/21 01:16:54;;;;;;;3.79;1.30;;;;;;;7.35;88.93;100023.41;2048566;79;20339;-76
2020/12/21 01:19:56;;;;;;;5.61;1.38;;;;;;;7.34;88.89;100007.06;2047827;79;20332;-76
2020/12/21 01:22:57;;;;;;;6.16;1.80;;;;;;;7.36;88.89;100005.41;2047670;79;20467;-76
2020/12/21 01:25:59;;;;;;;4.69;2.09;;;;;;;7.37;88.76;100006.28;2047714;79;20355;-77
2020/12/21 01:29:02;;;;;;;6.20;1.64;;;;;;;7.37;88.65;100007.13;2048366;79;20684;-76
2020/12/21 01:32:04;;;;;;;3.10;1.20;;;;;;;7.39;88.52;100007.16;2046781;79;20369;-76
2020/12/21 01:35:06;;;;;;;3.95;1.24;;;;;;;7.40;88.35;100006.31;2046624;79;20350;-76
2020/12/21 01:38:07;;;;;;;6.15;1.41;;;;;;;7.38;88.36;100008.00;2047132;79;20326;-77
2020/12/21 01:41:09;;;;;;;3.26;1.13;;;;;;;7.39;88.29;100012.31;2045654;79;20748;-76
2020/12/21 01:44:12;;;;;;;4.55;1.29;;;;;;;7.35;88.31;100016.53;2046444;79;20981;-76
2020/12/21 01:47:15;;;;;;;3.16;1.05;;;;;;;7.33;88.37;100013.06;2048131;79;20346;-76
2020/12/21 01:50:17;;;;;;;4.66;1.19;;;;;;;7.31;88.27;100019.03;2047520;79;20326;-75
2020/12/21 01:53:19;;;;;;;4.91;1.49;;;;;;;7.26;88.34;100016.38;2048562;79;20448;-77
2020/12/21 01:56:21;;;;;;;4.35;1.34;;;;;;;7.25;88.40;100009.47;2047894;79;20352;-76
2020/12/21 01:59:23;;;;;;;4.05;1.05;;;;;;;7.22;88.30;100005.13;2047526;79;20348;-76
2020/12/21 02:02:25;;;;;;;2.71;1.00;;;;;;;7.19;88.23;100009.38;2046752;79;21258;-76
2020/12/21 02:05:26;;;;;;;4.99;1.16;;;;;;;7.12;88.09;100002.34;2048053;79;20337;-76
2020/12/21 02:08:28;;;;;;;2.17;1.04;;;;;;;7.07;88.20;100011.72;2048340;79;20326;-76
2020/12/21 02:11:30;;;;;;;2.10;0.90;;;;;;;7.04;88.48;99999.63;2047582;79;20325;-75
2020/12/21 02:14:31;;;;;;;4.30;1.29;;;;;;;7.05;88.67;99990.16;2047299;79;20378;-76
2020/12/21 02:17:33;;;;;;;2.49;0.80;;;;;;;7.04;88.76;99993.59;2048200;79;20314;-76
2020/12/21 02:20:35;;;;;;;3.76;1.30;;;;;;;7.03;88.85;99999.59;2047560;79;20310;-75
2020/12/21 02:23:36;;;;;;;5.75;1.10;;;;;;;7.03;89.04;99997.88;2045905;79;20826;-76
2020/12/21 02:26:39;;;;;;;6.09;1.49;;;;;;;7.04;89.02;100002.19;2047560;79;20310;-76
2020/12/21 02:29:41;;;;;;;2.51;1.19;;;;;;;7.02;89.04;100003.88;2046938;79;20314;-77
2020/12/21 02:32:42;;;;;;;3.15;1.10;;;;;;;7.01;88.92;100001.28;2046076;79;20342;-76
2020/12/21 02:35:44;;;;;;;5.31;1.21;;;;;;;7.00;89.10;100000.38;2041459;79;20331;-76
2020/12/21 02:38:46;;;;;;;4.70;1.25;;;;;;;7.02;89.15;100000.44;2042318;79;20315;-76
2020/12/21 02:41:51;;;;;;;2.53;1.31;;;;;;;7.03;89.05;99995.28;2041582;79;20360;-77
2020/12/21 02:44:53;;;;;;;3.88;1.27;;;;;;;7.07;89.03;99996.22;2040722;79;20333;-77
2020/12/21 02:47:55;;;;;;;5.05;1.19;;;;;;;7.08;88.96;99990.22;2040776;79;21134;-76
2020/12/21 02:50:56;;;;;;;3.36;1.26;;;;;;;7.07;88.99;99989.34;2041161;79;20307;-76
2020/12/21 02:53:58;;;;;;;3.41;1.50;;;;;;;7.09;89.03;99986.78;2039694;79;20340;-77
2020/12/21 02:57:00;;;;;;;3.65;1.52;;;;;;;7.07;89.02;99991.06;2044653;79;20372;-76
2020/12/21 03:00:07;;;;;;;6.85;1.67;;;;;;;7.08;89.04;99991.09;2040557;79;20463;-76
2020/12/21 03:03:09;;;;;;;7.60;1.40;;;;;;;7.07;88.97;99983.31;2042575;79;20877;-76
2020/12/21 03:06:11;;;;;;;6.61;1.31;;;;;;;7.07;89.02;99979.00;2042610;79;20315;-76
2020/12/21 03:09:12;;;;;;;7.55;1.27;;;;;;;7.08;88.88;99974.72;2042200;79;20347;-76
2020/12/21 03:12:14;;;;;;;3.69;1.15;;;;;;;7.08;88.83;99969.56;2042426;79;20597;-76
2020/12/21 03:15:16;;;;;;;3.63;1.36;;;;;;;7.06;88.75;99969.53;2042263;79;20486;-76
2020/12/21 03:18:18;;;;;;;3.92;1.60;;;;;;;7.06;88.72;99968.66;2042728;79;20367;-76
2020/12/21 03:21:20;;;;;;;3.80;1.21;;;;;;;7.03;88.57;99972.06;2042184;79;20352;-76
2020/12/21 03:24:21;;;;;;;4.84;1.39;;;;;;;7.00;88.59;99973.69;2042379;79;20751;-76
2020/12/21 03:27:27;;;;;;;3.39;1.20;;;;;;;6.99;88.77;99972.81;2041690;79;20327;-76
2020/12/21 03:30:28;;;;;;;4.68;1.33;;;;;;;6.97;88.72;99974.50;2042343;79;20730;-76
2020/12/21 03:33:30;;;;;;;5.49;1.41;;;;;;;6.92;88.60;99979.59;2041973;79;21261;-76
2020/12/21 03:36:32;;;;;;;2.92;1.00;;;;;;;6.90;88.75;99985.56;2042284;79;20373;-76
2020/12/21 03:39:34;;;;;;;5.44;1.25;;;;;;;6.91;88.82;99984.72;2042913;79;20358;-76
2020/12/21 03:42:35;;;;;;;3.55;1.41;;;;;;;6.92;88.89;99979.59;2042374;79;20323;-76
2020/12/21 03:45:37;;;;;;;5.59;1.90;;;;;;;6.92;88.85;99968.38;2042373;79;20339;-76
2020/12/21 03:48:38;;;;;;;5.40;1.85;;;;;;;6.92;88.94;99976.13;2043393;79;20350;-76
2020/12/21 03:51:40;;;;;;;8.45;2.14;;;;;;;6.93;89.11;99965.84;2043625;79;20186;-76
2020/12/21 03:54:41;;;;;;;3.50;1.84;;;;;;;6.95;89.13;99955.53;2043502;79;20324;-76
2020/12/21 03:57:43;;;;;;;3.36;1.86;;;;;;;6.96;88.99;99947.81;2043907;79;20315;-76
2020/12/21 04:00:44;;;;;;;6.10;2.47;;;;;;;6.94;88.82;99948.63;2043453;79;20784;-76
2020/12/21 04:03:46;;;;;;;4.00;2.01;;;;;;;6.93;88.84;99949.47;2039127;79;20343;-76
2020/12/21 04:06:48;;;;;;;5.69;2.15;;;;;;;6.91;88.90;99943.41;2043341;79;20932;-76
2020/12/21 04:09:49;;;;;;;5.43;2.51;;;;;;;6.90;89.10;99946.84;2043562;79;20329;-77
2020/12/21 04:12:51;;;;;;;3.51;2.59;;;;;;;6.92;89.18;99945.16;2042866;79;20325;-76
2020/12/21 04:15:53;;;;;;;5.78;2.06;;;;;;;6.93;89.06;99946.91;2043664;79;20361;-76
2020/12/21 04:18:55;;;;;;;9.29;2.84;;;;;;;6.94;89.22;99940.88;2042639;79;21399;-76
2020/12/21 04:21:57;;;;;;;3.40;2.08;;;;;;;6.94;89.22;99943.47;2043808;79;20327;-76
2020/12/21 04:24:59;;;;;;;5.68;2.31;;;;;;;6.95;89.18;99943.50;2043656;79;20376;-76
2020/12/21 04:28:01;;;;;;;4.14;2.66;;;;;;;6.96;89.30;99949.53;2043743;79;20796;-77
2020/12/21 04:31:04;;;;;;;4.93;2.53;;;;;;;6.97;89.32;99952.13;2041261;79;20450;-76
2020/12/21 04:34:06;;;;;;;3.96;2.04;;;;;;;6.98;89.24;99958.16;2041719;79;20467;-76
2020/12/21 04:37:08;;;;;;;4.82;2.31;;;;;;;7.00;89.28;99958.19;2041737;79;20333;-76
2020/12/21 04:40:09;;;;;;;5.01;2.91;;;;;;;6.98;89.19;99953.88;2041701;79;20317;-77
2020/12/21 04:43:11;;;;;;;6.91;2.61;;;;;;;6.97;89.13;99954.72;2041739;79;20721;-76
2020/12/21 04:46:13;;;;;;;5.11;2.59;;;;;;;6.97;89.09;99948.69;2041167;79;20404;-76
2020/12/21 04:49:17;;;;;;;3.74;2.28;;;;;;;6.97;89.12;99941.81;2042056;79;20385;-77
2020/12/21 04:52:19;;;;;;;5.68;2.58;;;;;;;6.99;89.14;99941.84;2041308;79;20416;-77
2020/12/21 04:55:22;;;;;;;5.39;2.80;;;;;;;6.98;89.14;99946.13;2037504;79;20323;-76
2020/12/21 04:58:24;;;;;;;5.45;1.86;;;;;;;6.98;89.13;99948.72;2041237;79;20323;-76
2020/12/21 05:01:25;;;;;;;5.46;2.47;;;;;;;6.96;89.22;99954.69;2041001;79;20349;-76
2020/12/21 05:04:27;;;;;;;9.34;1.99;;;;;;;6.97;89.37;99959.88;2042300;79;20928;-76
2020/12/21 05:07:30;;;;;;;4.76;2.13;;;;;;;7.00;89.32;99947.88;2041779;79;20792;-76
2020/12/21 05:10:31;;;;;;;3.30;1.74;;;;;;;7.01;89.35;99953.09;2041600;79;20315;-76
2020/12/21 05:13:34;;;;;;;5.96;1.73;;;;;;;7.03;89.35;99946.25;2041435;79;20380;-76
2020/12/21 05:16:37;;;;;;;4.06;1.90;;;;;;;7.04;89.34;99942.81;2041406;79;20333;-76
2020/12/21 05:19:39;;;;;;;4.04;1.64;;;;;;;7.06;89.29;99941.13;2041071;79;20331;-76
2020/12/21 05:22:41;;;;;;;6.51;1.99;;;;;;;7.09;89.32;99945.47;2041416;79;20818;-76
2020/12/21 05:25:43;;;;;;;4.93;1.70;;;;;;;7.09;89.26;99942.88;2041149;79;20922;-76
2020/12/21 05:28:45;;;;;;;4.25;1.84;;;;;;;7.08;89.18;99936.84;2041797;79;20355;-76
2020/12/21 05:31:49;;;;;;;3.64;1.55;;;;;;;7.07;89.16;99926.50;2043059;79;20337;-76
2020/12/21 05:34:51;;;;;;;2.79;1.42;;;;;;;7.05;89.12;99916.16;2043235;79;20353;-76
2020/12/21 05:37:53;;;;;;;5.65;1.46;;;;;;;7.05;89.09;99908.41;2043391;79;20372;-76
2020/12/21 05:41:10;;;;;;;6.53;1.54;;;;;;;7.05;89.19;99902.38;2042825;79;20825;-76
2020/12/21 05:44:12;;;;;;;4.09;1.52;;;;;;;7.07;89.21;99892.94;2043443;79;20331;-76
2020/12/21 05:47:16;;;;;;;5.95;2.09;;;;;;;7.07;89.17;99886.06;2042619;79;20790;-75
2020/12/21 05:50:21;;;;;;;5.00;1.98;;;;;;;7.06;89.20;99891.19;2042703;79;20375;-76
2020/12/21 05:53:24;;;;;;;4.94;1.66;;;;;;;7.05;89.31;99881.72;2043041;79;20390;-76
2020/12/21 05:56:28;;;;;;;7.00;1.76;;;;;;;7.04;89.37;99883.44;2042973;79;20327;-77
2020/12/21 05:59:29;;;;;;;3.38;1.60;;;;;;;7.02;89.56;99876.50;2042392;79;20726;-76
2020/12/21 06:02:32;;;;;;;7.51;2.44;;;;;;;7.07;89.63;99878.31;2043033;79;20331;-77
2020/12/21 06:05:40;;;;;;;4.64;1.42;;;;;;;7.08;89.51;99881.78;2042987;79;20384;-77
2020/12/21 06:08:43;;;;;;;4.70;1.88;;;;;;;7.10;89.41;99885.25;2043077;79;20664;-76
2020/12/21 06:11:45;;;;;;;4.49;1.42;;;;;;;7.10;89.51;99888.69;2042966;79;20323;-76
2020/12/21 06:14:48;;;;;;;3.42;1.81;;;;;;;7.10;89.53;99888.69;2043269;79;20319;-77
2020/12/21 06:17:50;;;;;;;4.13;1.55;;;;;;;7.10;89.57;99899.03;2042494;79;20337;-76
2020/12/21 06:20:54;;;;;;;7.61;1.67;;;;;;;7.13;89.59;99891.31;2041781;79;20327;-76
2020/12/21 06:23:56;;;;;;;5.64;1.74;;;;;;;7.15;89.55;99889.63;2040958;79;20432;-76
2020/12/21 06:26:58;;;;;;;3.80;1.50;;;;;;;7.16;89.44;99888.78;2040942;79;20324;-76
2020/12/21 06:30:00;;;;;;;7.91;2.16;;;;;;;7.19;89.48;99896.63;2040846;79;20315;-77
2020/12/21 06:33:04;;;;;;;6.56;1.91;;;;;;;7.23;89.26;99900.97;2041002;79;20546;-76
2020/12/21 06:36:06;;;;;;;3.97;1.80;;;;;;;7.25;89.13;99901.00;2040583;79;20345;-77
2020/12/21 06:39:08;;;;;;;5.53;1.52;;;;;;;7.30;89.00;99901.94;2038724;79;20776;-78
2020/12/21 06:42:20;;;;;;;3.36;1.39;;;;;;;7.33;88.83;99896.81;2039197;79;20348;-76
2020/12/21 06:45:33;;;;;;;3.75;1.74;;;;;;;7.37;88.67;99905.53;2040181;79;20361;-77
2020/12/21 06:48:35;;;;;;;5.71;1.99;;;;;;;7.38;88.56;99899.50;2040104;79;20506;-77
2020/12/21 06:51:41;;;;;;;5.40;1.52;;;;;;;7.40;88.41;99896.09;2041048;79;20357;-77
2020/12/21 06:54:43;;;;;;;2.22;1.42;;;;;;;7.42;88.32;99902.16;2041113;79;20344;-77
2020/12/21 06:57:51;;;;;;;3.79;1.49;;;;;;;7.45;88.29;99896.16;2040170;79;20720;-74
2020/12/21 07:00:53;;;;;;;3.66;1.60;;;;;;;7.48;88.22;99896.22;2041126;79;20356;-76
2020/12/21 07:03:56;;;;;;;3.16;1.55;;;;;;;7.47;88.12;99897.94;2040138;79;20168;-74
2020/12/21 07:07:01;;;;;;;4.29;1.86;;;;;;;7.46;87.98;99901.34;2040563;79;20303;-75
2020/12/21 07:10:03;;;;;;;5.14;1.71;;;;;;;7.45;87.90;99904.78;2041149;79;20300;-76
2020/12/21 07:13:05;;;;;;;7.07;2.25;;;;;;;7.45;87.84;99897.03;2040973;79;20992;-76
2020/12/21 07:16:07;;;;;;;3.03;1.67;;;;;;;7.44;87.71;99897.88;2041588;79;20335;-78
2020/12/21 07:19:10;;;;;;;4.61;1.67;;;;;;;7.42;87.60;99903.88;2041819;79;20346;-77
2020/12/21 07:22:13;;;;;;;3.49;1.50;;;;;;;7.39;87.56;99901.25;2040914;79;20319;-75
2020/12/21 07:25:16;;;;;;;8.89;2.16;;;;;;;7.37;87.62;99902.94;2040628;79;20751;-75
2020/12/21 07:28:22;;;;;;;4.97;1.63;;;;;;;7.39;87.65;99890.91;2041385;79;20348;-76
2020/12/21 07:31:24;;;;;;;5.66;2.28;;;;;;;7.38;87.60;99891.75;2041569;79;20319;-79
2020/12/21 07:34:27;;;;;;;5.38;2.13;;;;;;;7.36;87.60;99893.41;2041517;79;20376;-76
2020/12/21 07:37:31;;;;;;;5.05;1.90;;;;;;;7.34;87.52;99890.81;2041165;79;20356;-75
2020/12/21 07:40:34;;;;;;;2.74;1.52;;;;;;;7.31;87.59;99889.91;2042320;79;20410;-76
2020/12/21 07:43:43;;;;;;;4.01;1.60;;;;;;;7.30;87.62;99895.91;2044015;79;20332;-76
2020/12/21 07:47:03;;;;;;;7.43;2.19;;;;;;;7.31;87.77;99893.34;2043347;79;20319;-76
2020/12/21 07:50:06;;;;;;;4.51;1.71;;;;;;;7.32;87.78;99889.91;2044247;79;20503;-76
2020/12/21 07:53:09;;;;;;;3.64;2.15;;;;;;;7.30;87.61;99893.31;2043778;79;20319;-75
2020/12/21 07:56:17;;;;;;;2.92;1.36;;;;;;;7.28;87.68;99893.31;2042904;79;21380;-76
2020/12/21 07:59:19;;;;;;;2.98;1.67;;;;;;;7.27;87.76;99876.94;2043295;79;20339;-76
2020/12/21 08:02:24;;;;;;;4.34;1.90;;;;;;;7.31;87.77;99884.72;2042997;79;20226;-75
2020/12/21 08:05:25;;;;;;;7.03;2.13;;;;;;;7.33;87.77;99891.66;2043341;79;20702;-76
2020/12/21 08:08:27;;;;;;;3.08;1.55;;;;;;;7.34;87.63;99902.84;2043602;79;20337;-76
2020/12/21 08:11:31;;;;;;;4.45;1.99;;;;;;;7.30;87.61;99894.19;2042831;79;20357;-73
2020/12/21 08:14:33;;;;;;;4.45;1.77;;;;;;;7.32;87.60;99891.63;2044096;79;20365;-76
2020/12/21 08:17:35;;;;;;;6.31;2.06;;;;;;;7.30;87.65;99894.19;2043688;79;20355;-76
2020/12/21 08:20:41;;;;;;;6.69;2.20;;;;;;;7.36;87.64;99896.00;2043084;79;20303;-74
2020/12/21 08:23:54;;;;;;;4.79;1.71;;;;;;;7.37;87.54;99893.47;2043691;79;20385;-75
2020/12/21 08:26:56;;;;;;;3.22;2.04;;;;;;;7.35;87.44;99889.97;2042845;79;20337;-77
2020/12/21 08:30:16;;;;;;;2.53;1.63;;;;;;;7.34;87.52;99888.22;2041908;79;21239;-76
2020/12/21 08:33:18;;;;;;;3.15;1.94;;;;;;;7.36;87.60;99889.16;2041716;79;20421;-76
2020/12/21 08:36:39;;;;;;;4.10;2.04;;;;;;;7.35;87.49;99896.84;2047406;79;20302;-76
2020/12/21 08:39:40;;;;;;;4.66;1.95;;;;;;;7.34;87.54;99898.56;2046916;79;20326;-76
2020/12/21 08:42:46;;;;;;;6.04;2.56;;;;;;;7.34;87.57;99895.97;2046672;79;20434;-76
2020/12/21 08:45:48;;;;;;;3.10;1.75;;;;;;;7.34;87.57;99888.22;2046958;79;20999;-76
2020/12/21 08:48:50;;;;;;;3.28;1.67;;;;;;;7.37;87.66;99880.56;2047460;79;20347;-75
2020/12/21 08:51:52;;;;;;;3.59;1.71;;;;;;;7.40;87.72;99880.59;2046836;78;21217;-76
2020/12/21 08:54:54;;;;;;;3.66;1.67;;;;;;;7.42;87.63;99875.47;2046688;79;20875;-76
2020/12/21 08:57:55;;;;;;;4.31;1.83;;;;;;;7.41;87.55;99871.13;2051698;78;20365;-76
2020/12/21 09:00:57;;;;;;;3.41;2.13;;;;;;;7.42;87.79;99867.69;2047851;79;20225;-76
2020/12/21 09:03:59;;;;;;;2.46;1.91;;;;;;;7.42;87.81;99871.16;2048656;79;20438;-76
2020/12/21 09:07:00;;;;;;;7.21;2.06;;;;;;;7.47;87.91;99866.06;2048507;79;20331;-76
2020/12/21 09:10:04;;;;;;;4.03;1.90;;;;;;;7.50;87.84;99877.31;2048081;79;20346;-76
2020/12/21 09:13:05;;;;;;;6.31;1.91;;;;;;;7.53;87.78;99872.19;2047365;79;20303;-76
2020/12/21 09:16:08;;;;;;;6.11;2.19;;;;;;;7.56;87.77;99873.97;2047167;79;21138;-76
2020/12/21 09:19:09;;;;;;;5.46;2.38;;;;;;;7.60;87.78;99880.03;2047574;79;20294;-76
2020/12/21 09:22:11;;;;;;;5.68;1.96;;;;;;;7.64;87.83;99884.41;2044007;79;20326;-76
2020/12/21 09:25:13;;;;;;;3.64;1.98;;;;;;;7.66;87.65;99886.16;2041873;79;21123;-76
2020/12/21 09:28:16;;;;;;;3.04;1.71;;;;;;;7.67;87.55;99898.22;2042622;79;20369;-75
2020/12/21 09:31:19;;;;;;;4.16;1.98;;;;;;;7.69;87.52;99906.88;2044762;79;20310;-76
2020/12/21 09:34:21;;;;;;;2.66;2.08;;;;;;;7.69;87.39;99908.59;2045020;79;20326;-75
2020/12/21 09:37:22;;;;;;;6.93;2.66;;;;;;;7.71;87.40;99901.72;2045379;79;21120;-76
2020/12/21 09:40:24;;;;;;;4.31;2.58;;;;;;;7.72;87.48;99906.94;2044916;79;20797;-76
2020/12/21 09:43:26;;;;;;;4.94;2.15;;;;;;;7.76;87.43;99900.97;2043932;79;20336;-76
2020/12/21 09:46:27;;;;;;;3.47;2.20;;;;;;;7.76;87.57;99895.81;2041721;79;20326;-75
2020/12/21 09:49:29;;;;;;;4.50;1.85;;;;;;;7.80;87.61;99900.16;2042870;79;21331;-76
2020/12/21 09:52:31;;;;;;;3.76;2.08;;;;;;;7.86;87.70;99902.84;2044574;79;20328;-76
2020/12/21 09:55:33;;;;;;;3.30;2.06;;;;;;;7.89;87.54;99897.69;2045309;79;21233;-75
2020/12/21 09:58:35;;;;;;;6.32;1.90;;;;;;;7.94;87.59;99891.75;2045145;79;20459;-76
2020/12/21 10:01:37;;;;;;;4.86;1.74;;;;;;;7.99;87.59;99884.91;2045531;79;20391;-76
2020/12/21 10:04:39;;;;;;;5.45;2.64;;;;;;;8.04;87.62;99885.84;2044364;79;20371;-76
2020/12/21 10:07:40;;;;;;;4.36;2.17;;;;;;;8.09;87.46;99879.91;2042209;79;20318;-77
2020/12/21 10:10:47;;;;;;;4.31;2.05;;;;;;;8.13;87.29;99875.63;2041532;79;21024;-76
2020/12/21 10:13:48;;;;;;;4.22;2.09;;;;;;;8.12;87.17;99864.41;2043905;79;20334;-75
2020/12/21 10:16:54;;;;;;;3.54;2.04;;;;;;;8.19;87.11;99857.59;2045037;79;20338;-76
2020/12/21 10:19:55;;;;;;;3.72;2.13;;;;;;;8.24;87.04;99855.94;2044554;79;20371;-76
2020/12/21 10:22:57;;;;;;;6.10;2.03;;;;;;;8.26;86.80;99837.84;2044841;79;20328;-77
2020/12/21 10:26:03;;;;;;;2.14;1.71;;;;;;;8.30;86.73;99827.56;2045215;79;20911;-76
2020/12/21 10:29:04;;;;;;;3.69;1.96;;;;;;;8.37;86.57;99819.03;2042329;79;20905;-76
2020/12/21 10:32:06;;;;;;;3.56;1.71;;;;;;;8.35;85.89;99810.41;2040834;79;20322;-78
2020/12/21 10:35:08;;;;;;;1.96;1.80;;;;;;;8.43;85.87;99797.53;2043381;79;20298;-75
2020/12/21 10:38:10;;;;;;;4.72;2.10;;;;;;;8.53;85.54;99793.34;2044524;78;20347;-76
2020/12/21 10:41:12;;;;;;;3.39;1.77;;;;;;;8.60;85.31;99784.75;2044476;79;20505;-76
2020/12/21 10:44:15;;;;;;;4.26;2.33;;;;;;;8.72;85.22;99784.91;2045231;79;20712;-76
2020/12/21 10:47:16;;;;;;;4.21;1.63;;;;;;;8.79;84.79;99772.00;2044979;79;20415;-76
2020/12/21 10:50:18;;;;;;;4.21;1.88;;;;;;;8.87;84.50;99755.69;2043173;79;20329;-77
2020/12/21 10:53:20;;;;;;;2.61;1.89;;;;;;;8.90;84.19;99748.81;2041597;79;20461;-76
2020/12/21 10:56:22;;;;;;;4.70;1.92;;;;;;;8.93;84.06;99735.00;2043703;79;20895;-76
2020/12/21 10:59:24;;;;;;;3.24;1.63;;;;;;;8.97;84.01;99718.63;2046645;79;20421;-77
2020/12/21 11:02:25;;;;;;;5.26;2.15;;;;;;;9.00;83.44;99721.28;2047217;79;20340;-76
2020/12/21 11:05:28;;;;;;;3.03;2.05;;;;;;;9.01;83.20;99716.09;2050445;78;20339;-76
2020/12/21 11:08:30;;;;;;;4.39;1.92;;;;;;;8.97;83.06;99721.22;2046472;79;20334;-76
2020/12/21 11:11:32;;;;;;;3.49;1.99;;;;;;;8.93;83.02;99725.53;2046792;79;20337;-76
2020/12/21 11:14:33;;;;;;;3.86;1.79;;;;;;;8.92;82.77;99713.44;2046409;79;20306;-77
2020/12/21 11:17:35;;;;;;;2.91;1.55;;;;;;;8.89;82.40;99704.78;2047223;79;20326;-79
2020/12/21 11:20:37;;;;;;;3.53;2.03;;;;;;;8.89;82.35;99707.38;2047360;79;20429;-77
2020/12/21 11:23:40;;;;;;;4.29;2.11;;;;;;;8.93;82.38;99696.16;2045005;79;20349;-77
2020/12/21 11:26:42;;;;;;;3.03;1.64;;;;;;;8.94;82.21;99682.34;2047319;79;20332;-80
2020/12/21 11:29:43;;;;;;;2.38;1.59;;;;;;;8.96;82.27;99681.50;2047338;79;20333;-76
2020/12/21 11:32:55;;;;;;;2.10;1.40;;;;;;;8.99;82.48;99680.69;2046912;79;20328;-75
2020/12/21 11:35:57;;;;;;;2.41;1.48;;;;;;;8.93;81.57;99678.91;2046857;79;20348;-76
2020/12/21 11:38:59;;;;;;;2.06;0.93;;;;;;;8.92;81.47;99674.59;2046353;79;21158;-75
2020/12/21 11:42:00;;;;;;;3.61;1.26;;;;;;;8.94;81.36;99669.41;2046957;79;20342;-75
2020/12/21 11:45:05;;;;;;;2.55;1.16;;;;;;;8.93;81.50;99670.28;2046917;79;20345;-78
2020/12/21 11:48:06;;;;;;;3.04;1.23;;;;;;;8.93;81.50;99665.97;2047304;79;20358;-75
2020/12/21 11:51:08;;;;;;;4.50;1.00;;;;;;;8.94;81.18;99657.31;2047366;79;20532;-75
2020/12/21 11:54:10;;;;;;;3.60;1.10;;;;;;;8.90;80.69;99652.13;2047513;79;21149;-75
2020/12/21 11:57:12;;;;;;;3.24;1.11;;;;;;;8.91;80.82;99646.09;2047457;79;20702;-74
2020/12/21 12:00:13;;;;;;;2.05;0.76;;;;;;;8.89;80.70;99645.22;2049291;78;20343;-74
2020/12/21 12:03:15;;;;;;;0.99;0.77;;;;;;;8.87;80.66;99634.00;2046709;79;20326;-76
2020/12/21 12:06:23;;;;;;;4.30;0.84;;;;;;;8.91;80.93;99625.38;2046666;79;20330;-75
2020/12/21 12:09:25;;;;;;;2.53;0.76;;;;;;;8.94;81.11;99622.78;2047247;79;20855;-76
2020/12/21 12:12:27;;;;;;;1.44;0.86;;;;;;;8.95;80.76;99611.56;2046762;79;20330;-76
2020/12/21 12:15:28;;;;;;;1.20;0.74;;;;;;;8.96;80.00;99613.31;2046522;79;20303;-76
2020/12/21 12:18:30;;;;;;;1.39;0.74;;;;;;;8.97;80.10;99620.22;2047986;79;20729;-76
2020/12/21 12:21:32;;;;;;;2.35;0.80;;;;;;;9.01;80.37;99614.22;2045437;79;20935;-76
2020/12/21 12:24:34;;;;;;;2.56;0.86;;;;;;;9.01;80.21;99604.72;2046444;79;20335;-77
2020/12/21 12:27:36;;;;;;;1.59;0.69;;;;;;;9.04;80.33;99596.97;2048248;79;20366;-76
2020/12/21 12:30:37;;;;;;;2.30;0.80;;;;;;;9.09;80.17;99584.03;2047990;79;20326;-76
2020/12/21 12:33:39;;;;;;;1.96;1.05;;;;;;;9.16;79.96;99572.00;2046138;79;20815;-76
2020/12/21 12:36:43;;;;;;;1.54;0.80;;;;;;;9.21;79.85;99567.69;2048402;79;20791;-76
2020/12/21 12:39:44;;;;;;;2.15;0.94;;;;;;;9.24;79.23;99553.00;2047929;79;20314;-76
2020/12/21 12:42:46;;;;;;;3.70;0.76;;;;;;;9.25;79.47;99546.97;2048932;79;20362;-77
2020/12/21 12:45:47;;;;;;;1.90;0.80;;;;;;;9.32;79.87;99543.53;2047208;79;20312;-76
2020/12/21 12:48:49;;;;;;;0.77;0.55;;;;;;;9.45;80.03;99553.94;2046771;79;21026;-76
2020/12/21 12:51:54;;;;;;;1.01;0.60;;;;;;;9.56;79.82;99534.09;2046896;79;20322;-76
2020/12/21 12:54:56;;;;;;;1.01;0.50;;;;;;;9.63;78.99;99536.69;2046878;79;20372;-76
2020/12/21 12:57:57;;;;;;;1.44;0.60;;;;;;;9.62;78.36;99547.94;2047320;79;20347;-76
2020/12/21 13:00:59;;;;;;;2.01;0.66;;;;;;;9.66;78.75;99539.28;2046951;79;20511;-76
2020/12/21 13:04:01;;;;;;;0.96;0.70;;;;;;;9.71;78.67;99515.13;2046488;79;20359;-76
2020/12/21 13:07:03;;;;;;;2.13;0.50;;;;;;;9.71;78.26;99507.34;2046968;79;20767;-76
2020/12/21 13:10:05;;;;;;;2.09;0.60;;;;;;;9.68;78.20;99493.47;2047565;79;20350;-76
2020/12/21 13:13:07;;;;;;;2.88;0.60;;;;;;;9.67;77.87;99490.88;2046804;79;20344;-76
2020/12/21 13:16:10;;;;;;;2.49;1.05;;;;;;;9.69;78.13;99483.97;2046317;79;20310;-75
2020/12/21 13:19:13;;;;;;;1.96;0.61;;;;;;;9.72;77.79;99477.97;2047195;79;20330;-76
2020/12/21 13:22:14;;;;;;;1.85;0.79;;;;;;;9.74;77.62;99469.31;2046958;79;20357;-76
2020/12/21 13:25:16;;;;;;;0.91;0.40;;;;;;;9.75;77.49;99458.06;2046979;79;20398;-76
2020/12/21 13:28:18;;;;;;;1.44;0.55;;;;;;;9.72;77.19;99449.44;2047702;79;20739;-77
2020/12/21 13:31:21;;;;;;;1.41;0.47;;;;;;;9.70;77.10;99449.44;2047277;79;20420;-76
2020/12/21 13:34:22;;;;;;;1.77;0.50;;;;;;;9.68;77.26;99448.53;2032498;79;21056;-76
2020/12/21 13:37:24;;;;;;;1.52;0.60;;;;;;;9.66;76.78;99443.38;2021112;80;20328;-76
2020/12/21 13:46:37;;;;;;;1.80;0.60;;;;;;;9.74;76.98;99435.59;2067403;77;20292;-75
2020/12/21 13:51:29;;;;;;;1.11;0.41;;;;;;;9.61;76.07;99439.06;2067023;77;20328;-75
2020/12/21 13:54:30;;;;;;;1.90;0.50;;;;;;;9.55;75.38;99434.75;2058763;78;21267;-76
2020/12/21 13:57:32;;;;;;;0.63;0.40;;;;;;;9.56;75.59;99420.06;2056534;78;20313;-75
2020/12/21 14:00:34;;;;;;;2.11;0.45;;;;;;;9.55;75.40;99421.78;2056753;78;20312;-76
2020/12/21 14:03:39;;;;;;;1.40;0.60;;;;;;;9.53;75.46;99410.56;2056518;78;20312;-75
2020/12/21 14:06:41;;;;;;;1.42;0.55;;;;;;;9.50;75.71;99414.84;2057096;78;20357;-75
2020/12/21 14:09:44;;;;;;;1.51;0.70;;;;;;;9.49;76.82;99407.94;2055713;78;20293;-76
2020/12/21 14:12:49;;;;;;;2.67;0.50;;;;;;;9.43;76.98;99392.41;2056419;78;21319;-76
2020/12/21 14:15:51;;;;;;;1.63;0.56;;;;;;;9.40;77.88;99388.06;2056279;78;20163;-76
2020/12/21 14:18:53;;;;;;;0.69;0.60;;;;;;;9.42;78.81;99390.66;2055480;78;20308;-76
2020/12/21 14:21:55;;;;;;;1.00;0.49;;;;;;;9.36;79.30;99394.13;2056049;78;20354;-76
2020/12/21 14:24:57;;;;;;;2.34;0.61;;;;;;;9.33;79.72;99391.50;2056378;78;20981;-75
2020/12/21 14:27:59;;;;;;;2.49;0.64;;;;;;;9.30;79.50;99378.56;2055534;78;20317;-76
2020/12/21 14:31:01;;;;;;;1.17;0.50;;;;;;;9.29;79.55;99374.25;2056320;78;20183;-76
2020/12/21 14:34:06;;;;;;;1.55;0.44;;;;;;;9.28;79.61;99372.50;2056930;78;20451;-76
2020/12/21 14:37:08;;;;;;;0.94;0.52;;;;;;;9.25;79.55;99368.19;2055993;78;20328;-75